Locust, NC (28097)

4:51 PM EDT on May 24, 2015 (GMT -0400)
Bost Creek | | Change Station
CLOSE
Current Station
Personal Weather Station
Location: Midland, NC
Elevation: 528 ft
Nearby Weather Stations

Elev 528 ft 35.29 °N, 80.49 °W | Updated 3 minutes ago

Partly Cloudy
Partly Cloudy
83.3 °F
Feels Like 83 °F
N
6.0
Wind Variable Wind from West
Gusts 6.9 mph

Today
High -- | Low -- °F
--% Chance of Precip.
Yesterday
High -- | Low -- °F
Precip. -- in
6:11 AM 8:25 PM
Waxing Crescent, 42% visible
Pressure 30.36 in
Visibility 10.0 miles
Clouds Scattered Clouds 6000 ft
Heat Index 83 °F
Dew Point 60 °F
Humidity 45%
Rainfall 0.00 in
Snow Depth Not available.
UV 7 out of 12
Pollen 6.60 out of 12
Air Quality Not available.
Flu Activity No Activity
METAR KJQF 241951Z 20005KT 10SM SCT060 28/09 A3036

More Conditions Fewer Conditions

Pressure 30.36 in
Visibility 10.0 miles
Clouds Scattered Clouds 6000 ft
Heat Index 83 °F
Dew Point 60 °F
Humidity 45%
Rainfall 0.00 in
Snow Depth Not available.
UV 7 out of 12
Pollen 6.60 out of 12
Air Quality Not available.
Flu Activity No Activity
METAR KJQF 241951Z 20005KT 10SM SCT060 28/09 A3036

More Conditions Fewer Conditions

10-Day Weather Forecast

Almanac

Astronomy

May. 24, 2015 Rise Set
Actual Time
Civil Twilight
Nautical Twilight
Astronomical Twilight
Moon
Length of Visible Light
Length of Day
Tomorrow will be .
, % of the Moon is Illuminated

Today's Extremes

State Highs State Lows

Community

WunderPhotos

Upload Photos

1,823,862 photos uploaded!

WunderBlogs® & News

Nearby

Air Quality

  Air Quality AQ Index Pollutant
Not available.

Snow Depth

Station Depth Elevation

Earthquake Activity

City Distance Mag. Time & Date
Minimum magnitude displayed is 2.5.

Coastal Water Temperatures

Place Temperature

Stations

Nearby Weather Stations

Station Location Temp. Windchill Dew Point Humidity Wind Precip. Elev Updated Type